sensor_id;sensor_type;location;lat;lon;timestamp;temperature;humidity
17632;DHT22;8934;51.194;17.150;2022-11-20T00:01:15;-6.40;99.90
17632;DHT22;8934;51.194;17.150;2022-11-20T00:04:03;-6.40;99.90
17632;DHT22;8934;51.194;17.150;2022-11-20T00:06:51;-6.40;99.90
17632;DHT22;8934;51.194;17.150;2022-11-20T00:09:39;-6.40;99.90
17632;DHT22;8934;51.194;17.150;2022-11-20T00:12:28;-6.50;99.90
17632;DHT22;8934;51.194;17.150;2022-11-20T00:15:16;-6.50;99.90
17632;DHT22;8934;51.194;17.150;2022-11-20T00:18:04;-6.60;99.90
17632;DHT22;8934;51.194;17.150;2022-11-20T00:20:52;-6.60;99.90
17632;DHT22;8934;51.194;17.150;2022-11-20T00:23:40;-6.60;99.90
17632;DHT22;8934;51.194;17.150;2022-11-20T00:26:28;-6.60;99.90
17632;DHT22;8934;51.194;17.150;2022-11-20T00:29:17;-6.60;99.90
17632;DHT22;8934;51.194;17.150;2022-11-20T00:32:05;-6.70;99.90
17632;DHT22;8934;51.194;17.150;2022-11-20T00:34:53;-6.70;99.90
17632;DHT22;8934;51.194;17.150;2022-11-20T00:37:41;-6.70;99.90
17632;DHT22;8934;51.194;17.150;2022-11-20T00:40:29;-6.70;99.90
17632;DHT22;8934;51.194;17.150;2022-11-20T00:43:17;-6.70;99.90
17632;DHT22;8934;51.194;17.150;2022-11-20T00:46:07;-6.70;99.90
17632;DHT22;8934;51.194;17.150;2022-11-20T00:48:55;-6.70;99.90
17632;DHT22;8934;51.194;17.150;2022-11-20T00:51:43;-6.70;99.90
17632;DHT22;8934;51.194;17.150;2022-11-20T00:54:31;-6.70;99.90
17632;DHT22;8934;51.194;17.150;2022-11-20T00:57:19;-6.70;99.90
17632;DHT22;8934;51.194;17.150;2022-11-20T01:00:07;-6.70;99.90
17632;DHT22;8934;51.194;17.150;2022-11-20T01:02:57;-6.70;99.90
17632;DHT22;8934;51.194;17.150;2022-11-20T01:05:44;-6.70;99.90
17632;DHT22;8934;51.194;17.150;2022-11-20T01:08:33;-6.70;99.90
17632;DHT22;8934;51.194;17.150;2022-11-20T01:11:23;-6.70;99.90
17632;DHT22;8934;51.194;17.150;2022-11-20T01:14:14;-6.70;99.90
17632;DHT22;8934;51.194;17.150;2022-11-20T01:17:02;-6.70;99.90
17632;DHT22;8934;51.194;17.150;2022-11-20T01:19:52;-6.70;99.90
17632;DHT22;8934;51.194;17.150;2022-11-20T01:22:39;-6.60;99.90
17632;DHT22;8934;51.194;17.150;2022-11-20T01:25:27;-6.50;99.90
17632;DHT22;8934;51.194;17.150;2022-11-20T01:28:15;-6.50;99.90
17632;DHT22;8934;51.194;17.150;2022-11-20T01:31:10;-6.50;99.90
17632;DHT22;8934;51.194;17.150;2022-11-20T01:34:00;-6.50;99.90
17632;DHT22;8934;51.194;17.150;2022-11-20T01:36:50;-6.50;99.90
17632;DHT22;8934;51.194;17.150;2022-11-20T01:39:38;-6.50;99.90
17632;DHT22;8934;51.194;17.150;2022-11-20T01:42:26;-6.50;99.90
17632;DHT22;8934;51.194;17.150;2022-11-20T01:45:57;-6.50;99.90
17632;DHT22;8934;51.194;17.150;2022-11-20T01:48:50;-6.50;99.90
17632;DHT22;8934;51.194;17.150;2022-11-20T01:51:41;-6.60;99.90
17632;DHT22;8934;51.194;17.150;2022-11-20T01:54:33;-6.60;99.90
17632;DHT22;8934;51.194;17.150;2022-11-20T01:57:24;-6.60;99.90
17632;DHT22;8934;51.194;17.150;2022-11-20T02:00:17;-6.60;99.90
17632;DHT22;8934;51.194;17.150;2022-11-20T02:03:07;-6.60;99.90
17632;DHT22;8934;51.194;17.150;2022-11-20T02:06:01;-6.50;99.90
17632;DHT22;8934;51.194;17.150;2022-11-20T02:08:51;-6.50;99.90
17632;DHT22;8934;51.194;17.150;2022-11-20T02:11:41;-6.50;99.90
17632;DHT22;8934;51.194;17.150;2022-11-20T02:14:28;-6.50;99.90
17632;DHT22;8934;51.194;17.150;2022-11-20T02:17:15;-6.40;99.90
17632;DHT22;8934;51.194;17.150;2022-11-20T02:20:04;-6.50;99.90
17632;DHT22;8934;51.194;17.150;2022-11-20T02:22:56;-6.50;99.90
17632;DHT22;8934;51.194;17.150;2022-11-20T02:25:47;-6.50;99.90
17632;DHT22;8934;51.194;17.150;2022-11-20T02:28:35;-6.60;99.90
17632;DHT22;8934;51.194;17.150;2022-11-20T02:31:23;-6.60;99.90
17632;DHT22;8934;51.194;17.150;2022-11-20T02:34:11;-6.60;99.90
17632;DHT22;8934;51.194;17.150;2022-11-20T02:36:59;-6.60;99.90
17632;DHT22;8934;51.194;17.150;2022-11-20T02:39:49;-6.70;99.90
17632;DHT22;8934;51.194;17.150;2022-11-20T02:42:39;-6.70;99.90
17632;DHT22;8934;51.194;17.150;2022-11-20T02:45:26;-6.80;99.90
17632;DHT22;8934;51.194;17.150;2022-11-20T02:48:14;-6.90;99.90
17632;DHT22;8934;51.194;17.150;2022-11-20T02:51:02;-6.90;99.90
17632;DHT22;8934;51.194;17.150;2022-11-20T02:53:50;-6.90;99.90
17632;DHT22;8934;51.194;17.150;2022-11-20T02:56:38;-7.00;99.90
17632;DHT22;8934;51.194;17.150;2022-11-20T02:59:28;-7.00;99.90
17632;DHT22;8934;51.194;17.150;2022-11-20T03:02:16;-7.00;99.90
17632;DHT22;8934;51.194;17.150;2022-11-20T03:05:04;-7.10;99.90
17632;DHT22;8934;51.194;17.150;2022-11-20T03:07:52;-7.10;99.90
17632;DHT22;8934;51.194;17.150;2022-11-20T03:10:39;-7.10;99.90
17632;DHT22;8934;51.194;17.150;2022-11-20T03:13:27;-7.20;99.90
17632;DHT22;8934;51.194;17.150;2022-11-20T03:16:18;-7.20;99.90
17632;DHT22;8934;51.194;17.150;2022-11-20T03:19:06;-7.20;99.90
17632;DHT22;8934;51.194;17.150;2022-11-20T03:21:54;-7.20;99.90
17632;DHT22;8934;51.194;17.150;2022-11-20T03:24:41;-7.30;99.90
17632;DHT22;8934;51.194;17.150;2022-11-20T03:27:31;-7.30;99.90
17632;DHT22;8934;51.194;17.150;2022-11-20T03:30:18;-7.30;99.90
17632;DHT22;8934;51.194;17.150;2022-11-20T03:33:09;-7.30;99.90
17632;DHT22;8934;51.194;17.150;2022-11-20T03:36:00;-7.30;99.90
17632;DHT22;8934;51.194;17.150;2022-11-20T03:38:48;-7.30;99.90
17632;DHT22;8934;51.194;17.150;2022-11-20T03:41:35;-7.30;99.90
17632;DHT22;8934;51.194;17.150;2022-11-20T03:44:23;-7.30;99.90
17632;DHT22;8934;51.194;17.150;2022-11-20T03:47:11;-7.30;99.90
17632;DHT22;8934;51.194;17.150;2022-11-20T03:50:00;-7.30;99.90
17632;DHT22;8934;51.194;17.150;2022-11-20T03:52:47;-7.40;99.90
17632;DHT22;8934;51.194;17.150;2022-11-20T03:55:34;-7.40;99.90
17632;DHT22;8934;51.194;17.150;2022-11-20T03:58:22;-7.40;99.90
17632;DHT22;8934;51.194;17.150;2022-11-20T04:01:10;-7.50;99.90
17632;DHT22;8934;51.194;17.150;2022-11-20T04:03:58;-7.50;99.90
17632;DHT22;8934;51.194;17.150;2022-11-20T04:06:47;-7.50;99.90
17632;DHT22;8934;51.194;17.150;2022-11-20T04:09:34;-7.50;99.90
17632;DHT22;8934;51.194;17.150;2022-11-20T04:12:21;-7.50;99.90
17632;DHT22;8934;51.194;17.150;2022-11-20T04:15:09;-7.50;99.90
17632;DHT22;8934;51.194;17.150;2022-11-20T04:17:57;-7.50;99.90
17632;DHT22;8934;51.194;17.150;2022-11-20T04:20:44;-7.50;99.90
17632;DHT22;8934;51.194;17.150;2022-11-20T04:23:33;-7.60;99.90
17632;DHT22;8934;51.194;17.150;2022-11-20T04:26:21;-7.60;99.90
17632;DHT22;8934;51.194;17.150;2022-11-20T04:29:10;-7.60;99.90
17632;DHT22;8934;51.194;17.150;2022-11-20T04:31:57;-7.60;99.90
17632;DHT22;8934;51.194;17.150;2022-11-20T04:34:45;-7.60;99.90
17632;DHT22;8934;51.194;17.150;2022-11-20T04:37:33;-7.60;99.90
17632;DHT22;8934;51.194;17.150;2022-11-20T04:40:22;-7.60;99.90
17632;DHT22;8934;51.194;17.150;2022-11-20T04:43:09;-7.70;99.90
17632;DHT22;8934;51.194;17.150;2022-11-20T04:45:56;-7.70;99.90
17632;DHT22;8934;51.194;17.150;2022-11-20T04:48:44;-7.70;99.90
17632;DHT22;8934;51.194;17.150;2022-11-20T04:51:32;-7.80;99.90
17632;DHT22;8934;51.194;17.150;2022-11-20T04:54:20;-7.80;99.90
17632;DHT22;8934;51.194;17.150;2022-11-20T04:57:08;-7.80;99.90
17632;DHT22;8934;51.194;17.150;2022-11-20T04:59:59;-7.80;99.90
17632;DHT22;8934;51.194;17.150;2022-11-20T05:02:47;-7.80;99.90
17632;DHT22;8934;51.194;17.150;2022-11-20T05:05:34;-7.80;99.90
17632;DHT22;8934;51.194;17.150;2022-11-20T05:08:22;-7.90;99.90
17632;DHT22;8934;51.194;17.150;2022-11-20T05:11:11;-7.90;99.90
17632;DHT22;8934;51.194;17.150;2022-11-20T05:14:00;-7.90;99.90
17632;DHT22;8934;51.194;17.150;2022-11-20T05:16:47;-7.90;99.90
17632;DHT22;8934;51.194;17.150;2022-11-20T05:19:35;-7.90;99.90
17632;DHT22;8934;51.194;17.150;2022-11-20T05:22:22;-7.90;99.90
17632;DHT22;8934;51.194;17.150;2022-11-20T05:25:10;-8.00;99.90
17632;DHT22;8934;51.194;17.150;2022-11-20T05:27:57;-8.00;99.90
17632;DHT22;8934;51.194;17.150;2022-11-20T05:30:46;-8.00;99.90
17632;DHT22;8934;51.194;17.150;2022-11-20T05:33:34;-8.00;99.90
17632;DHT22;8934;51.194;17.150;2022-11-20T05:36:21;-8.00;99.90
17632;DHT22;8934;51.194;17.150;2022-11-20T05:39:09;-8.00;99.90
17632;DHT22;8934;51.194;17.150;2022-11-20T05:41:56;-8.00;99.90
17632;DHT22;8934;51.194;17.150;2022-11-20T05:44:57;-8.00;99.90
17632;DHT22;8934;51.194;17.150;2022-11-20T05:47:46;-8.10;99.90
17632;DHT22;8934;51.194;17.150;2022-11-20T05:50:33;-8.10;99.90
17632;DHT22;8934;51.194;17.150;2022-11-20T05:53:21;-8.10;99.90
17632;DHT22;8934;51.194;17.150;2022-11-20T05:59:00;-8.10;99.90
17632;DHT22;8934;51.194;17.150;2022-11-20T06:01:47;-8.10;99.90
17632;DHT22;8934;51.194;17.150;2022-11-20T06:04:36;-8.10;99.90
17632;DHT22;8934;51.194;17.150;2022-11-20T06:07:24;-8.10;99.90
17632;DHT22;8934;51.194;17.150;2022-11-20T06:10:11;-8.10;99.90
17632;DHT22;8934;51.194;17.150;2022-11-20T06:12:58;-8.20;99.90
17632;DHT22;8934;51.194;17.150;2022-11-20T06:15:48;-8.20;99.90
17632;DHT22;8934;51.194;17.150;2022-11-20T06:18:35;-8.20;99.90
17632;DHT22;8934;51.194;17.150;2022-11-20T06:21:24;-8.20;99.90
17632;DHT22;8934;51.194;17.150;2022-11-20T06:24:11;-8.20;99.90
17632;DHT22;8934;51.194;17.150;2022-11-20T06:26:59;-8.20;99.90
17632;DHT22;8934;51.194;17.150;2022-11-20T06:29:46;-8.20;99.90
17632;DHT22;8934;51.194;17.150;2022-11-20T06:32:33;-8.10;99.90
17632;DHT22;8934;51.194;17.150;2022-11-20T06:35:21;-8.10;99.90
17632;DHT22;8934;51.194;17.150;2022-11-20T06:38:10;-8.10;99.90
17632;DHT22;8934;51.194;17.150;2022-11-20T06:40:57;-8.00;99.90
17632;DHT22;8934;51.194;17.150;2022-11-20T06:43:44;-8.00;99.90
17632;DHT22;8934;51.194;17.150;2022-11-20T06:46:32;-8.00;99.90
17632;DHT22;8934;51.194;17.150;2022-11-20T06:49:20;-7.90;99.90
17632;DHT22;8934;51.194;17.150;2022-11-20T06:52:07;-7.90;99.90
17632;DHT22;8934;51.194;17.150;2022-11-20T06:54:56;-7.90;99.90
17632;DHT22;8934;51.194;17.150;2022-11-20T06:57:43;-7.80;99.90
17632;DHT22;8934;51.194;17.150;2022-11-20T07:00:31;-7.80;99.90
17632;DHT22;8934;51.194;17.150;2022-11-20T07:03:18;-7.70;99.90
17632;DHT22;8934;51.194;17.150;2022-11-20T07:06:06;-7.60;99.90
17632;DHT22;8934;51.194;17.150;2022-11-20T07:08:54;-7.50;99.90
17632;DHT22;8934;51.194;17.150;2022-11-20T07:11:42;-7.40;99.90
17632;DHT22;8934;51.194;17.150;2022-11-20T07:14:30;-7.20;99.90
17632;DHT22;8934;51.194;17.150;2022-11-20T07:17:17;-7.10;99.90
17632;DHT22;8934;51.194;17.150;2022-11-20T07:20:06;-6.90;99.90
17632;DHT22;8934;51.194;17.150;2022-11-20T07:22:54;-6.70;99.90
17632;DHT22;8934;51.194;17.150;2022-11-20T07:25:42;-6.50;99.90
17632;DHT22;8934;51.194;17.150;2022-11-20T07:28:31;-6.30;99.90
17632;DHT22;8934;51.194;17.150;2022-11-20T07:31:19;-6.10;99.90
17632;DHT22;8934;51.194;17.150;2022-11-20T07:34:07;-5.90;99.90
17632;DHT22;8934;51.194;17.150;2022-11-20T07:36:54;-5.60;99.90
17632;DHT22;8934;51.194;17.150;2022-11-20T07:39:42;-5.40;99.90
17632;DHT22;8934;51.194;17.150;2022-11-20T07:42:30;-5.20;99.90
17632;DHT22;8934;51.194;17.150;2022-11-20T07:45:20;-5.00;99.90
17632;DHT22;8934;51.194;17.150;2022-11-20T07:48:08;-4.70;99.90
17632;DHT22;8934;51.194;17.150;2022-11-20T07:50:56;-4.50;99.90
17632;DHT22;8934;51.194;17.150;2022-11-20T07:53:44;-4.30;99.90
17632;DHT22;8934;51.194;17.150;2022-11-20T07:56:32;-4.10;99.90
17632;DHT22;8934;51.194;17.150;2022-11-20T07:59:20;-3.90;99.90
17632;DHT22;8934;51.194;17.150;2022-11-20T08:02:11;-3.70;99.90
17632;DHT22;8934;51.194;17.150;2022-11-20T08:04:58;-3.50;99.90
17632;DHT22;8934;51.194;17.150;2022-11-20T08:07:49;-3.30;99.90
17632;DHT22;8934;51.194;17.150;2022-11-20T08:10:36;-3.10;99.90
17632;DHT22;8934;51.194;17.150;2022-11-20T08:13:23;-3.00;99.90
17632;DHT22;8934;51.194;17.150;2022-11-20T08:16:28;-2.90;99.90
17632;DHT22;8934;51.194;17.150;2022-11-20T08:19:18;-2.80;99.90
17632;DHT22;8934;51.194;17.150;2022-11-20T08:22:06;-2.50;99.90
17632;DHT22;8934;51.194;17.150;2022-11-20T08:24:54;-2.30;99.90
17632;DHT22;8934;51.194;17.150;2022-11-20T08:27:42;-2.20;99.90
17632;DHT22;8934;51.194;17.150;2022-11-20T08:30:29;-2.00;99.90
17632;DHT22;8934;51.194;17.150;2022-11-20T08:33:18;-1.90;99.90
17632;DHT22;8934;51.194;17.150;2022-11-20T08:36:08;-1.80;99.90
17632;DHT22;8934;51.194;17.150;2022-11-20T08:38:56;-1.70;99.90
17632;DHT22;8934;51.194;17.150;2022-11-20T08:41:44;-1.50;99.90
17632;DHT22;8934;51.194;17.150;2022-11-20T08:44:32;-1.40;99.90
17632;DHT22;8934;51.194;17.150;2022-11-20T08:47:19;-1.30;99.90
17632;DHT22;8934;51.194;17.150;2022-11-20T08:50:08;-1.10;99.90
17632;DHT22;8934;51.194;17.150;2022-11-20T08:53:02;-1.00;99.90
17632;DHT22;8934;51.194;17.150;2022-11-20T08:55:50;-0.80;99.90
17632;DHT22;8934;51.194;17.150;2022-11-20T08:58:37;-0.80;99.90
17632;DHT22;8934;51.194;17.150;2022-11-20T09:01:45;-0.50;99.90
17632;DHT22;8934;51.194;17.150;2022-11-20T09:04:32;-0.40;99.90
17632;DHT22;8934;51.194;17.150;2022-11-20T09:07:20;-0.30;99.90
17632;DHT22;8934;51.194;17.150;2022-11-20T09:10:09;-0.10;99.90
17632;DHT22;8934;51.194;17.150;2022-11-20T09:13:09;0.00;99.90
17632;DHT22;8934;51.194;17.150;2022-11-20T09:15:58;0.10;99.90
17632;DHT22;8934;51.194;17.150;2022-11-20T09:18:49;0.20;99.90
17632;DHT22;8934;51.194;17.150;2022-11-20T09:21:57;0.30;99.90
17632;DHT22;8934;51.194;17.150;2022-11-20T09:24:46;0.40;99.90
17632;DHT22;8934;51.194;17.150;2022-11-20T09:27:35;0.50;99.90
17632;DHT22;8934;51.194;17.150;2022-11-20T09:30:23;0.60;99.90
17632;DHT22;8934;51.194;17.150;2022-11-20T09:33:11;0.80;99.90
17632;DHT22;8934;51.194;17.150;2022-11-20T09:35:58;0.90;99.90
17632;DHT22;8934;51.194;17.150;2022-11-20T09:38:46;1.00;99.90
17632;DHT22;8934;51.194;17.150;2022-11-20T09:41:49;1.20;99.90
17632;DHT22;8934;51.194;17.150;2022-11-20T09:44:59;1.20;99.90
17632;DHT22;8934;51.194;17.150;2022-11-20T09:48:08;1.30;99.90
17632;DHT22;8934;51.194;17.150;2022-11-20T09:51:06;1.20;99.90
17632;DHT22;8934;51.194;17.150;2022-11-20T09:54:10;1.20;99.90
17632;DHT22;8934;51.194;17.150;2022-11-20T09:57:03;1.30;99.90
17632;DHT22;8934;51.194;17.150;2022-11-20T09:59:56;1.40;99.90
17632;DHT22;8934;51.194;17.150;2022-11-20T10:02:50;1.40;99.90
17632;DHT22;8934;51.194;17.150;2022-11-20T10:05:43;1.50;99.90
17632;DHT22;8934;51.194;17.150;2022-11-20T10:08:37;1.50;99.90
17632;DHT22;8934;51.194;17.150;2022-11-20T10:11:33;1.60;99.90
17632;DHT22;8934;51.194;17.150;2022-11-20T10:14:29;1.60;99.90
17632;DHT22;8934;51.194;17.150;2022-11-20T10:17:30;1.70;99.90
17632;DHT22;8934;51.194;17.150;2022-11-20T10:20:26;1.80;99.90
17632;DHT22;8934;51.194;17.150;2022-11-20T10:23:32;1.80;99.90
17632;DHT22;8934;51.194;17.150;2022-11-20T10:26:29;1.90;99.90
17632;DHT22;8934;51.194;17.150;2022-11-20T10:29:24;1.90;99.90
17632;DHT22;8934;51.194;17.150;2022-11-20T10:32:20;2.00;99.90
17632;DHT22;8934;51.194;17.150;2022-11-20T10:35:20;2.10;99.90
17632;DHT22;8934;51.194;17.150;2022-11-20T10:38:14;2.10;99.90
17632;DHT22;8934;51.194;17.150;2022-11-20T10:41:05;2.20;99.90
17632;DHT22;8934;51.194;17.150;2022-11-20T10:44:14;2.30;99.90
17632;DHT22;8934;51.194;17.150;2022-11-20T10:47:22;2.50;99.90
17632;DHT22;8934;51.194;17.150;2022-11-20T10:50:13;2.60;99.90
17632;DHT22;8934;51.194;17.150;2022-11-20T10:53:19;2.70;99.90
17632;DHT22;8934;51.194;17.150;2022-11-20T10:56:17;2.80;99.90
17632;DHT22;8934;51.194;17.150;2022-11-20T11:02:32;2.90;99.90
17632;DHT22;8934;51.194;17.150;2022-11-20T11:05:32;3.00;99.90
17632;DHT22;8934;51.194;17.150;2022-11-20T11:08:23;3.10;99.90
17632;DHT22;8934;51.194;17.150;2022-11-20T11:11:20;3.20;99.90
17632;DHT22;8934;51.194;17.150;2022-11-20T11:14:10;3.30;99.90
17632;DHT22;8934;51.194;17.150;2022-11-20T11:16:58;3.30;99.90
17632;DHT22;8934;51.194;17.150;2022-11-20T11:19:56;3.40;99.90
17632;DHT22;8934;51.194;17.150;2022-11-20T11:22:46;3.40;99.90
17632;DHT22;8934;51.194;17.150;2022-11-20T11:25:36;3.40;99.90
17632;DHT22;8934;51.194;17.150;2022-11-20T11:28:25;3.40;99.90
17632;DHT22;8934;51.194;17.150;2022-11-20T11:31:22;3.50;99.90
17632;DHT22;8934;51.194;17.150;2022-11-20T11:34:12;3.60;99.90
17632;DHT22;8934;51.194;17.150;2022-11-20T11:37:01;3.50;99.90
17632;DHT22;8934;51.194;17.150;2022-11-20T11:39:50;3.60;99.90
17632;DHT22;8934;51.194;17.150;2022-11-20T11:43:02;3.60;99.90
17632;DHT22;8934;51.194;17.150;2022-11-20T11:45:53;3.70;99.90
17632;DHT22;8934;51.194;17.150;2022-11-20T11:48:40;3.60;99.90
17632;DHT22;8934;51.194;17.150;2022-11-20T11:51:39;3.60;99.90
17632;DHT22;8934;51.194;17.150;2022-11-20T11:54:34;3.60;99.90
17632;DHT22;8934;51.194;17.150;2022-11-20T11:57:28;3.70;99.90
17632;DHT22;8934;51.194;17.150;2022-11-20T12:00:20;3.80;99.90
17632;DHT22;8934;51.194;17.150;2022-11-20T12:03:14;3.80;99.90
17632;DHT22;8934;51.194;17.150;2022-11-20T12:06:06;3.80;99.90
17632;DHT22;8934;51.194;17.150;2022-11-20T12:09:01;3.90;99.90
17632;DHT22;8934;51.194;17.150;2022-11-20T12:11:54;4.00;99.90
17632;DHT22;8934;51.194;17.150;2022-11-20T12:14:46;4.00;99.90
17632;DHT22;8934;51.194;17.150;2022-11-20T12:17:37;3.90;99.90
17632;DHT22;8934;51.194;17.150;2022-11-20T12:20:29;3.90;99.90
17632;DHT22;8934;51.194;17.150;2022-11-20T12:23:24;4.00;99.90
17632;DHT22;8934;51.194;17.150;2022-11-20T12:26:22;3.90;99.90
17632;DHT22;8934;51.194;17.150;2022-11-20T12:29:21;4.10;99.90
17632;DHT22;8934;51.194;17.150;2022-11-20T12:32:36;4.10;99.90
17632;DHT22;8934;51.194;17.150;2022-11-20T12:35:48;4.10;99.90
17632;DHT22;8934;51.194;17.150;2022-11-20T12:39:11;4.00;99.90
17632;DHT22;8934;51.194;17.150;2022-11-20T12:42:30;4.10;99.90
17632;DHT22;8934;51.194;17.150;2022-11-20T12:46:14;4.20;99.90
17632;DHT22;8934;51.194;17.150;2022-11-20T12:49:12;4.30;99.90
17632;DHT22;8934;51.194;17.150;2022-11-20T12:52:16;4.30;99.90
17632;DHT22;8934;51.194;17.150;2022-11-20T12:55:16;4.40;99.90
17632;DHT22;8934;51.194;17.150;2022-11-20T12:58:11;4.50;99.90
17632;DHT22;8934;51.194;17.150;2022-11-20T13:01:05;4.60;99.90
17632;DHT22;8934;51.194;17.150;2022-11-20T13:03:56;4.70;99.90
17632;DHT22;8934;51.194;17.150;2022-11-20T13:06:50;4.70;99.90
17632;DHT22;8934;51.194;17.150;2022-11-20T13:09:43;4.80;99.90
17632;DHT22;8934;51.194;17.150;2022-11-20T13:12:34;4.80;99.90
17632;DHT22;8934;51.194;17.150;2022-11-20T13:15:42;4.90;99.90
17632;DHT22;8934;51.194;17.150;2022-11-20T13:18:37;5.00;99.90
17632;DHT22;8934;51.194;17.150;2022-11-20T13:21:36;5.20;99.90
17632;DHT22;8934;51.194;17.150;2022-11-20T13:24:26;5.20;99.90
17632;DHT22;8934;51.194;17.150;2022-11-20T13:27:20;5.30;99.90
17632;DHT22;8934;51.194;17.150;2022-11-20T13:30:16;5.30;99.90
17632;DHT22;8934;51.194;17.150;2022-11-20T13:33:04;5.30;99.90
17632;DHT22;8934;51.194;17.150;2022-11-20T13:35:57;5.20;99.90
17632;DHT22;8934;51.194;17.150;2022-11-20T13:38:46;5.30;99.90
17632;DHT22;8934;51.194;17.150;2022-11-20T13:41:35;5.30;99.90
17632;DHT22;8934;51.194;17.150;2022-11-20T13:44:29;5.50;99.90
17632;DHT22;8934;51.194;17.150;2022-11-20T13:47:21;5.60;99.90
17632;DHT22;8934;51.194;17.150;2022-11-20T13:50:09;5.70;99.90
17632;DHT22;8934;51.194;17.150;2022-11-20T13:53:05;5.80;99.90
17632;DHT22;8934;51.194;17.150;2022-11-20T13:56:01;5.90;99.90
17632;DHT22;8934;51.194;17.150;2022-11-20T13:59:01;6.10;99.90
17632;DHT22;8934;51.194;17.150;2022-11-20T14:01:53;5.80;99.90
17632;DHT22;8934;51.194;17.150;2022-11-20T14:04:44;5.30;99.90
17632;DHT22;8934;51.194;17.150;2022-11-20T14:07:37;4.80;99.90
17632;DHT22;8934;51.194;17.150;2022-11-20T14:10:27;4.30;99.90
17632;DHT22;8934;51.194;17.150;2022-11-20T14:13:19;3.90;99.90
17632;DHT22;8934;51.194;17.150;2022-11-20T14:16:09;3.60;99.90
17632;DHT22;8934;51.194;17.150;2022-11-20T14:19:22;3.30;99.90
17632;DHT22;8934;51.194;17.150;2022-11-20T14:22:18;3.10;99.90
17632;DHT22;8934;51.194;17.150;2022-11-20T14:25:19;2.90;99.90
17632;DHT22;8934;51.194;17.150;2022-11-20T14:28:11;2.60;99.90
17632;DHT22;8934;51.194;17.150;2022-11-20T14:31:20;2.30;99.90
17632;DHT22;8934;51.194;17.150;2022-11-20T14:34:15;2.00;99.90
17632;DHT22;8934;51.194;17.150;2022-11-20T14:37:10;1.80;99.90
17632;DHT22;8934;51.194;17.150;2022-11-20T14:40:04;1.50;99.90
17632;DHT22;8934;51.194;17.150;2022-11-20T14:42:52;1.30;99.90
17632;DHT22;8934;51.194;17.150;2022-11-20T14:45:41;1.10;99.90
17632;DHT22;8934;51.194;17.150;2022-11-20T14:48:31;0.90;99.90
17632;DHT22;8934;51.194;17.150;2022-11-20T14:51:30;0.60;99.90
17632;DHT22;8934;51.194;17.150;2022-11-20T14:54:20;0.40;99.90
17632;DHT22;8934;51.194;17.150;2022-11-20T14:57:21;0.20;99.90
17632;DHT22;8934;51.194;17.150;2022-11-20T15:00:19;-0.10;99.90
17632;DHT22;8934;51.194;17.150;2022-11-20T15:03:15;-0.30;99.90
17632;DHT22;8934;51.194;17.150;2022-11-20T15:06:03;-0.40;99.90
17632;DHT22;8934;51.194;17.150;2022-11-20T15:08:53;-0.60;99.90
17632;DHT22;8934;51.194;17.150;2022-11-20T15:11:52;-0.70;99.90
17632;DHT22;8934;51.194;17.150;2022-11-20T15:14:41;-0.90;99.90
17632;DHT22;8934;51.194;17.150;2022-11-20T15:17:28;-1.00;99.90
17632;DHT22;8934;51.194;17.150;2022-11-20T15:20:18;-1.10;99.90
17632;DHT22;8934;51.194;17.150;2022-11-20T15:23:10;-1.30;99.90
17632;DHT22;8934;51.194;17.150;2022-11-20T15:25:59;-1.40;99.90
17632;DHT22;8934;51.194;17.150;2022-11-20T15:28:47;-1.50;99.90
17632;DHT22;8934;51.194;17.150;2022-11-20T15:31:36;-1.60;99.90
17632;DHT22;8934;51.194;17.150;2022-11-20T15:34:27;-1.70;99.90
17632;DHT22;8934;51.194;17.150;2022-11-20T15:37:14;-1.80;99.90
17632;DHT22;8934;51.194;17.150;2022-11-20T15:40:03;-2.00;99.90
17632;DHT22;8934;51.194;17.150;2022-11-20T15:42:52;-2.00;99.90
17632;DHT22;8934;51.194;17.150;2022-11-20T15:45:59;-2.10;99.90
17632;DHT22;8934;51.194;17.150;2022-11-20T15:48:51;-2.20;99.90
17632;DHT22;8934;51.194;17.150;2022-11-20T15:51:39;-2.30;99.90
17632;DHT22;8934;51.194;17.150;2022-11-20T15:54:29;-2.40;99.90
17632;DHT22;8934;51.194;17.150;2022-11-20T15:57:16;-2.50;99.90
17632;DHT22;8934;51.194;17.150;2022-11-20T16:00:07;-2.60;99.90
17632;DHT22;8934;51.194;17.150;2022-11-20T16:02:55;-2.60;99.90
17632;DHT22;8934;51.194;17.150;2022-11-20T16:05:43;-2.70;99.90
17632;DHT22;8934;51.194;17.150;2022-11-20T16:08:31;-2.70;99.90
17632;DHT22;8934;51.194;17.150;2022-11-20T16:11:18;-2.80;99.90
17632;DHT22;8934;51.194;17.150;2022-11-20T16:14:05;-2.90;99.90
17632;DHT22;8934;51.194;17.150;2022-11-20T16:17:12;-3.00;99.90
17632;DHT22;8934;51.194;17.150;2022-11-20T16:20:00;-3.10;99.90
17632;DHT22;8934;51.194;17.150;2022-11-20T16:22:48;-3.10;99.90
17632;DHT22;8934;51.194;17.150;2022-11-20T16:25:36;-3.20;99.90
17632;DHT22;8934;51.194;17.150;2022-11-20T16:28:24;-3.30;99.90
17632;DHT22;8934;51.194;17.150;2022-11-20T16:31:11;-3.30;99.90
17632;DHT22;8934;51.194;17.150;2022-11-20T16:34:03;-3.40;99.90
17632;DHT22;8934;51.194;17.150;2022-11-20T16:36:57;-3.50;99.90
17632;DHT22;8934;51.194;17.150;2022-11-20T16:39:44;-3.50;99.90
17632;DHT22;8934;51.194;17.150;2022-11-20T16:42:32;-3.50;99.90
17632;DHT22;8934;51.194;17.150;2022-11-20T16:45:20;-3.50;99.90
17632;DHT22;8934;51.194;17.150;2022-11-20T16:48:13;-3.60;99.90
17632;DHT22;8934;51.194;17.150;2022-11-20T16:51:02;-3.60;99.90
17632;DHT22;8934;51.194;17.150;2022-11-20T16:53:50;-3.70;99.90
17632;DHT22;8934;51.194;17.150;2022-11-20T16:56:38;-3.70;99.90
17632;DHT22;8934;51.194;17.150;2022-11-20T16:59:26;-3.80;99.90
17632;DHT22;8934;51.194;17.150;2022-11-20T17:02:13;-3.90;99.90
17632;DHT22;8934;51.194;17.150;2022-11-20T17:05:01;-3.90;99.90
17632;DHT22;8934;51.194;17.150;2022-11-20T17:07:50;-4.00;99.90
17632;DHT22;8934;51.194;17.150;2022-11-20T17:10:37;-4.00;99.90
17632;DHT22;8934;51.194;17.150;2022-11-20T17:13:24;-4.10;99.90
17632;DHT22;8934;51.194;17.150;2022-11-20T17:16:12;-4.10;99.90
17632;DHT22;8934;51.194;17.150;2022-11-20T17:19:00;-4.20;99.90
17632;DHT22;8934;51.194;17.150;2022-11-20T17:21:48;-4.20;99.90
17632;DHT22;8934;51.194;17.150;2022-11-20T17:24:37;-4.20;99.90
17632;DHT22;8934;51.194;17.150;2022-11-20T17:27:24;-4.20;99.90
17632;DHT22;8934;51.194;17.150;2022-11-20T17:30:12;-4.30;99.90
17632;DHT22;8934;51.194;17.150;2022-11-20T17:33:00;-4.30;99.90
17632;DHT22;8934;51.194;17.150;2022-11-20T17:35:47;-4.40;99.90
17632;DHT22;8934;51.194;17.150;2022-11-20T17:38:35;-4.40;99.90
17632;DHT22;8934;51.194;17.150;2022-11-20T17:41:24;-4.50;99.90
17632;DHT22;8934;51.194;17.150;2022-11-20T17:44:12;-4.50;99.90
17632;DHT22;8934;51.194;17.150;2022-11-20T17:47:00;-4.50;99.90
17632;DHT22;8934;51.194;17.150;2022-11-20T17:49:47;-4.50;99.90
17632;DHT22;8934;51.194;17.150;2022-11-20T17:52:34;-4.40;99.90
17632;DHT22;8934;51.194;17.150;2022-11-20T17:55:22;-4.30;99.90
17632;DHT22;8934;51.194;17.150;2022-11-20T17:58:11;-4.00;99.90
17632;DHT22;8934;51.194;17.150;2022-11-20T18:01:02;-3.70;99.90
17632;DHT22;8934;51.194;17.150;2022-11-20T18:03:50;-3.60;99.90
17632;DHT22;8934;51.194;17.150;2022-11-20T18:06:38;-3.50;99.90
17632;DHT22;8934;51.194;17.150;2022-11-20T18:09:26;-3.40;99.90
17632;DHT22;8934;51.194;17.150;2022-11-20T18:12:13;-3.30;99.90